sensor_id;sensor_type;location;lat;lon;timestamp;P1;durP1;ratioP1;P2;durP2;ratioP2
32347;SDS011;18821;44.800;10.326;2023-02-01T00:01:47;30.13;;;12.82;;
32347;SDS011;18821;44.800;10.326;2023-02-01T00:04:13;28.15;;;12.70;;
32347;SDS011;18821;44.800;10.326;2023-02-01T00:06:39;28.52;;;12.98;;
32347;SDS011;18821;44.800;10.326;2023-02-01T00:09:05;29.70;;;12.85;;
32347;SDS011;18821;44.800;10.326;2023-02-01T00:11:31;28.15;;;12.30;;
32347;SDS011;18821;44.800;10.326;2023-02-01T00:13:57;32.00;;;12.77;;
32347;SDS011;18821;44.800;10.326;2023-02-01T00:16:24;32.45;;;13.45;;
32347;SDS011;18821;44.800;10.326;2023-02-01T00:18:56;27.02;;;12.10;;
32347;SDS011;18821;44.800;10.326;2023-02-01T00:21:23;34.42;;;13.18;;
32347;SDS011;18821;44.800;10.326;2023-02-01T00:23:50;32.13;;;13.35;;
32347;SDS011;18821;44.800;10.326;2023-02-01T00:26:16;26.98;;;12.52;;
32347;SDS011;18821;44.800;10.326;2023-02-01T00:29:02;24.35;;;11.00;;
32347;SDS011;18821;44.800;10.326;2023-02-01T00:31:29;25.80;;;11.63;;
32347;SDS011;18821;44.800;10.326;2023-02-01T00:33:55;26.35;;;11.55;;
32347;SDS011;18821;44.800;10.326;2023-02-01T00:36:21;28.33;;;10.88;;
32347;SDS011;18821;44.800;10.326;2023-02-01T00:38:47;28.40;;;12.07;;
32347;SDS011;18821;44.800;10.326;2023-02-01T00:41:14;28.48;;;11.15;;
32347;SDS011;18821;44.800;10.326;2023-02-01T00:43:45;25.90;;;11.35;;
32347;SDS011;18821;44.800;10.326;2023-02-01T00:46:12;27.27;;;12.20;;
32347;SDS011;18821;44.800;10.326;2023-02-01T00:48:40;28.55;;;11.70;;
32347;SDS011;18821;44.800;10.326;2023-02-01T00:51:08;25.90;;;11.45;;
32347;SDS011;18821;44.800;10.326;2023-02-01T00:53:39;24.85;;;10.93;;
32347;SDS011;18821;44.800;10.326;2023-02-01T00:56:06;21.77;;;9.55;;
32347;SDS011;18821;44.800;10.326;2023-02-01T00:58:33;22.67;;;10.38;;
32347;SDS011;18821;44.800;10.326;2023-02-01T01:03:29;21.48;;;9.75;;
32347;SDS011;18821;44.800;10.326;2023-02-01T01:05:59;21.13;;;9.38;;
32347;SDS011;18821;44.800;10.326;2023-02-01T01:08:26;21.63;;;8.75;;
32347;SDS011;18821;44.800;10.326;2023-02-01T01:10:52;22.95;;;9.05;;
32347;SDS011;18821;44.800;10.326;2023-02-01T01:13:18;20.20;;;9.75;;
32347;SDS011;18821;44.800;10.326;2023-02-01T01:15:45;20.88;;;9.40;;
32347;SDS011;18821;44.800;10.326;2023-02-01T01:18:14;20.55;;;9.20;;
32347;SDS011;18821;44.800;10.326;2023-02-01T01:20:43;23.75;;;9.85;;
32347;SDS011;18821;44.800;10.326;2023-02-01T01:23:09;19.70;;;9.13;;
32347;SDS011;18821;44.800;10.326;2023-02-01T01:25:39;20.52;;;9.43;;
32347;SDS011;18821;44.800;10.326;2023-02-01T01:28:05;22.90;;;8.60;;
32347;SDS011;18821;44.800;10.326;2023-02-01T01:30:34;24.20;;;9.27;;
32347;SDS011;18821;44.800;10.326;2023-02-01T01:33:00;19.83;;;9.55;;
32347;SDS011;18821;44.800;10.326;2023-02-01T01:35:28;17.30;;;8.52;;
32347;SDS011;18821;44.800;10.326;2023-02-01T01:37:55;19.27;;;8.13;;
32347;SDS011;18821;44.800;10.326;2023-02-01T01:40:22;23.02;;;9.05;;
32347;SDS011;18821;44.800;10.326;2023-02-01T01:42:47;15.70;;;7.97;;
32347;SDS011;18821;44.800;10.326;2023-02-01T01:45:25;21.20;;;9.15;;
32347;SDS011;18821;44.800;10.326;2023-02-01T01:47:57;20.15;;;7.80;;
32347;SDS011;18821;44.800;10.326;2023-02-01T01:50:38;15.32;;;7.07;;
32347;SDS011;18821;44.800;10.326;2023-02-01T01:53:08;15.02;;;7.70;;
32347;SDS011;18821;44.800;10.326;2023-02-01T01:55:40;13.70;;;6.57;;
32347;SDS011;18821;44.800;10.326;2023-02-01T01:58:11;15.25;;;6.13;;
32347;SDS011;18821;44.800;10.326;2023-02-01T02:00:40;12.48;;;6.72;;
32347;SDS011;18821;44.800;10.326;2023-02-01T02:03:10;14.48;;;5.82;;
32347;SDS011;18821;44.800;10.326;2023-02-01T02:05:37;11.43;;;5.82;;
32347;SDS011;18821;44.800;10.326;2023-02-01T02:08:03;11.95;;;5.38;;
32347;SDS011;18821;44.800;10.326;2023-02-01T02:10:30;13.25;;;5.93;;
32347;SDS011;18821;44.800;10.326;2023-02-01T02:13:16;15.98;;;5.55;;
32347;SDS011;18821;44.800;10.326;2023-02-01T02:15:45;12.98;;;5.68;;
32347;SDS011;18821;44.800;10.326;2023-02-01T02:46:22;13.43;;;5.47;;
32347;SDS011;18821;44.800;10.326;2023-02-01T02:49:15;14.27;;;6.25;;
32347;SDS011;18821;44.800;10.326;2023-02-01T02:51:50;11.63;;;6.10;;
32347;SDS011;18821;44.800;10.326;2023-02-01T02:54:43;15.23;;;5.65;;
32347;SDS011;18821;44.800;10.326;2023-02-01T03:00:15;15.18;;;6.57;;
32347;SDS011;18821;44.800;10.326;2023-02-01T03:03:03;15.48;;;6.63;;
32347;SDS011;18821;44.800;10.326;2023-02-01T03:05:49;15.15;;;5.82;;
32347;SDS011;18821;44.800;10.326;2023-02-01T03:08:20;13.25;;;6.32;;
32347;SDS011;18821;44.800;10.326;2023-02-01T03:11:07;13.15;;;6.25;;
32347;SDS011;18821;44.800;10.326;2023-02-01T03:13:41;15.00;;;6.45;;
32347;SDS011;18821;44.800;10.326;2023-02-01T03:17:06;10.90;;;5.50;;
32347;SDS011;18821;44.800;10.326;2023-02-01T03:19:31;14.20;;;6.65;;
32347;SDS011;18821;44.800;10.326;2023-02-01T03:22:04;14.35;;;6.18;;
32347;SDS011;18821;44.800;10.326;2023-02-01T03:27:49;13.02;;;6.68;;
32347;SDS011;18821;44.800;10.326;2023-02-01T03:32:27;14.13;;;6.75;;
32347;SDS011;18821;44.800;10.326;2023-02-01T03:34:53;15.93;;;6.90;;
32347;SDS011;18821;44.800;10.326;2023-02-01T03:37:25;15.63;;;6.28;;
32347;SDS011;18821;44.800;10.326;2023-02-01T03:42:40;13.65;;;6.45;;
32347;SDS011;18821;44.800;10.326;2023-02-01T03:47:50;15.75;;;6.78;;
32347;SDS011;18821;44.800;10.326;2023-02-01T03:50:21;16.60;;;7.60;;
32347;SDS011;18821;44.800;10.326;2023-02-01T03:52:52;17.27;;;7.32;;
32347;SDS011;18821;44.800;10.326;2023-02-01T03:55:24;15.50;;;6.90;;
32347;SDS011;18821;44.800;10.326;2023-02-01T03:58:01;17.85;;;7.65;;
32347;SDS011;18821;44.800;10.326;2023-02-01T04:00:33;16.92;;;7.50;;
32347;SDS011;18821;44.800;10.326;2023-02-01T04:02:59;17.65;;;7.85;;
32347;SDS011;18821;44.800;10.326;2023-02-01T04:05:27;17.23;;;7.85;;
32347;SDS011;18821;44.800;10.326;2023-02-01T04:07:58;20.67;;;8.80;;
32347;SDS011;18821;44.800;10.326;2023-02-01T04:10:25;16.60;;;8.07;;
32347;SDS011;18821;44.800;10.326;2023-02-01T04:12:51;16.23;;;8.55;;
32347;SDS011;18821;44.800;10.326;2023-02-01T04:15:17;19.52;;;9.60;;
32347;SDS011;18821;44.800;10.326;2023-02-01T04:17:44;19.33;;;8.38;;
32347;SDS011;18821;44.800;10.326;2023-02-01T04:20:10;27.77;;;9.73;;
32347;SDS011;18821;44.800;10.326;2023-02-01T04:22:36;21.90;;;8.65;;
32347;SDS011;18821;44.800;10.326;2023-02-01T04:25:02;19.40;;;7.55;;
32347;SDS011;18821;44.800;10.326;2023-02-01T04:27:31;16.30;;;7.35;;
32347;SDS011;18821;44.800;10.326;2023-02-01T04:29:57;17.10;;;7.45;;
32347;SDS011;18821;44.800;10.326;2023-02-01T04:32:23;13.93;;;7.28;;
32347;SDS011;18821;44.800;10.326;2023-02-01T04:34:49;13.88;;;6.75;;
32347;SDS011;18821;44.800;10.326;2023-02-01T04:37:14;21.98;;;8.63;;
32347;SDS011;18821;44.800;10.326;2023-02-01T04:39:40;15.40;;;7.20;;
32347;SDS011;18821;44.800;10.326;2023-02-01T04:42:06;18.80;;;7.75;;
32347;SDS011;18821;44.800;10.326;2023-02-01T04:44:33;14.52;;;7.95;;
32347;SDS011;18821;44.800;10.326;2023-02-01T04:47:02;18.98;;;6.75;;
32347;SDS011;18821;44.800;10.326;2023-02-01T04:49:28;19.13;;;7.45;;
32347;SDS011;18821;44.800;10.326;2023-02-01T04:51:54;18.38;;;7.63;;
32347;SDS011;18821;44.800;10.326;2023-02-01T04:54:20;21.80;;;7.47;;
32347;SDS011;18821;44.800;10.326;2023-02-01T04:56:46;15.90;;;6.22;;
32347;SDS011;18821;44.800;10.326;2023-02-01T04:59:12;16.80;;;7.28;;
32347;SDS011;18821;44.800;10.326;2023-02-01T05:01:38;15.75;;;6.97;;
32347;SDS011;18821;44.800;10.326;2023-02-01T05:04:04;17.75;;;7.55;;
32347;SDS011;18821;44.800;10.326;2023-02-01T05:06:30;16.60;;;7.47;;
32347;SDS011;18821;44.800;10.326;2023-02-01T05:08:56;18.20;;;7.60;;
32347;SDS011;18821;44.800;10.326;2023-02-01T05:11:21;16.73;;;8.57;;
32347;SDS011;18821;44.800;10.326;2023-02-01T05:14:06;21.30;;;8.38;;
32347;SDS011;18821;44.800;10.326;2023-02-01T05:16:32;25.10;;;7.80;;
32347;SDS011;18821;44.800;10.326;2023-02-01T05:18:58;25.00;;;9.65;;
32347;SDS011;18821;44.800;10.326;2023-02-01T05:21:24;18.17;;;7.80;;
32347;SDS011;18821;44.800;10.326;2023-02-01T05:23:50;19.67;;;8.02;;
32347;SDS011;18821;44.800;10.326;2023-02-01T05:26:35;22.67;;;8.77;;
32347;SDS011;18821;44.800;10.326;2023-02-01T05:29:02;19.13;;;8.07;;
32347;SDS011;18821;44.800;10.326;2023-02-01T05:31:29;25.17;;;7.93;;
32347;SDS011;18821;44.800;10.326;2023-02-01T05:33:55;25.30;;;8.13;;
32347;SDS011;18821;44.800;10.326;2023-02-01T05:36:21;22.50;;;8.73;;
32347;SDS011;18821;44.800;10.326;2023-02-01T05:38:47;22.00;;;8.13;;
32347;SDS011;18821;44.800;10.326;2023-02-01T05:41:13;22.20;;;8.13;;
32347;SDS011;18821;44.800;10.326;2023-02-01T05:43:39;30.75;;;8.45;;
32347;SDS011;18821;44.800;10.326;2023-02-01T05:46:05;21.85;;;9.07;;
32347;SDS011;18821;44.800;10.326;2023-02-01T05:48:31;26.73;;;8.25;;
32347;SDS011;18821;44.800;10.326;2023-02-01T05:50:57;19.92;;;8.18;;
32347;SDS011;18821;44.800;10.326;2023-02-01T05:53:23;38.92;;;8.98;;
32347;SDS011;18821;44.800;10.326;2023-02-01T05:55:49;25.52;;;8.50;;
32347;SDS011;18821;44.800;10.326;2023-02-01T05:58:15;26.05;;;9.25;;
32347;SDS011;18821;44.800;10.326;2023-02-01T06:00:41;23.45;;;9.27;;
32347;SDS011;18821;44.800;10.326;2023-02-01T06:03:07;24.73;;;11.27;;
32347;SDS011;18821;44.800;10.326;2023-02-01T06:05:33;30.80;;;9.85;;
32347;SDS011;18821;44.800;10.326;2023-02-01T06:07:59;23.35;;;9.40;;
32347;SDS011;18821;44.800;10.326;2023-02-01T06:10:25;23.10;;;9.80;;
32347;SDS011;18821;44.800;10.326;2023-02-01T06:12:51;23.55;;;9.00;;
32347;SDS011;18821;44.800;10.326;2023-02-01T06:15:18;25.65;;;9.50;;
32347;SDS011;18821;44.800;10.326;2023-02-01T06:17:44;25.95;;;8.90;;
32347;SDS011;18821;44.800;10.326;2023-02-01T06:20:11;19.73;;;7.82;;
32347;SDS011;18821;44.800;10.326;2023-02-01T06:22:39;22.23;;;8.43;;
32347;SDS011;18821;44.800;10.326;2023-02-01T06:25:05;20.25;;;8.45;;
32347;SDS011;18821;44.800;10.326;2023-02-01T06:27:33;30.00;;;8.88;;
32347;SDS011;18821;44.800;10.326;2023-02-01T06:29:59;20.35;;;8.07;;
32347;SDS011;18821;44.800;10.326;2023-02-01T06:32:25;21.38;;;8.57;;
32347;SDS011;18821;44.800;10.326;2023-02-01T06:34:51;20.10;;;8.43;;
32347;SDS011;18821;44.800;10.326;2023-02-01T06:37:19;20.80;;;8.23;;
32347;SDS011;18821;44.800;10.326;2023-02-01T06:39:45;21.83;;;8.60;;
32347;SDS011;18821;44.800;10.326;2023-02-01T06:42:12;22.30;;;8.73;;
32347;SDS011;18821;44.800;10.326;2023-02-01T06:44:38;22.75;;;9.20;;
32347;SDS011;18821;44.800;10.326;2023-02-01T06:47:03;29.60;;;9.50;;
32347;SDS011;18821;44.800;10.326;2023-02-01T06:49:29;30.40;;;9.70;;
32347;SDS011;18821;44.800;10.326;2023-02-01T06:51:55;26.27;;;8.98;;
32347;SDS011;18821;44.800;10.326;2023-02-01T06:54:21;23.45;;;9.10;;
32347;SDS011;18821;44.800;10.326;2023-02-01T06:56:47;20.13;;;9.30;;
32347;SDS011;18821;44.800;10.326;2023-02-01T06:59:13;42.75;;;10.20;;
32347;SDS011;18821;44.800;10.326;2023-02-01T07:01:42;28.55;;;9.85;;
32347;SDS011;18821;44.800;10.326;2023-02-01T07:04:09;20.98;;;8.50;;
32347;SDS011;18821;44.800;10.326;2023-02-01T07:06:37;20.17;;;7.90;;
32347;SDS011;18821;44.800;10.326;2023-02-01T07:09:03;23.10;;;7.85;;
32347;SDS011;18821;44.800;10.326;2023-02-01T07:11:29;28.75;;;8.45;;
32347;SDS011;18821;44.800;10.326;2023-02-01T07:13:55;21.80;;;8.60;;
32347;SDS011;18821;44.800;10.326;2023-02-01T07:16:22;26.70;;;8.68;;
32347;SDS011;18821;44.800;10.326;2023-02-01T07:18:49;24.95;;;8.45;;
32347;SDS011;18821;44.800;10.326;2023-02-01T07:21:16;24.38;;;8.68;;
32347;SDS011;18821;44.800;10.326;2023-02-01T07:23:42;27.80;;;9.10;;
32347;SDS011;18821;44.800;10.326;2023-02-01T07:26:09;23.58;;;8.98;;
32347;SDS011;18821;44.800;10.326;2023-02-01T07:28:37;22.45;;;8.45;;
32347;SDS011;18821;44.800;10.326;2023-02-01T07:31:05;25.98;;;8.15;;
32347;SDS011;18821;44.800;10.326;2023-02-01T07:33:32;32.90;;;8.52;;
32347;SDS011;18821;44.800;10.326;2023-02-01T07:35:59;24.58;;;8.35;;
32347;SDS011;18821;44.800;10.326;2023-02-01T07:38:27;20.00;;;8.02;;
32347;SDS011;18821;44.800;10.326;2023-02-01T07:40:58;31.08;;;8.70;;
32347;SDS011;18821;44.800;10.326;2023-02-01T07:43:25;29.00;;;8.65;;
32347;SDS011;18821;44.800;10.326;2023-02-01T07:45:52;30.15;;;9.35;;
32347;SDS011;18821;44.800;10.326;2023-02-01T07:48:19;36.95;;;11.07;;
32347;SDS011;18821;44.800;10.326;2023-02-01T07:50:46;30.05;;;8.70;;
32347;SDS011;18821;44.800;10.326;2023-02-01T07:53:12;26.75;;;8.45;;
32347;SDS011;18821;44.800;10.326;2023-02-01T07:55:38;26.30;;;9.60;;
32347;SDS011;18821;44.800;10.326;2023-02-01T07:58:05;37.95;;;9.85;;
32347;SDS011;18821;44.800;10.326;2023-02-01T08:00:31;23.73;;;9.43;;
32347;SDS011;18821;44.800;10.326;2023-02-01T08:03:17;25.08;;;9.32;;
32347;SDS011;18821;44.800;10.326;2023-02-01T08:05:43;37.60;;;11.13;;
32347;SDS011;18821;44.800;10.326;2023-02-01T08:08:12;24.05;;;10.68;;
32347;SDS011;18821;44.800;10.326;2023-02-01T08:10:38;21.65;;;9.23;;
32347;SDS011;18821;44.800;10.326;2023-02-01T08:13:04;25.77;;;10.07;;
32347;SDS011;18821;44.800;10.326;2023-02-01T08:15:30;38.63;;;10.90;;
32347;SDS011;18821;44.800;10.326;2023-02-01T08:17:56;25.05;;;11.95;;
32347;SDS011;18821;44.800;10.326;2023-02-01T08:20:23;35.33;;;11.43;;
32347;SDS011;18821;44.800;10.326;2023-02-01T08:22:51;31.92;;;11.43;;
32347;SDS011;18821;44.800;10.326;2023-02-01T08:25:17;33.45;;;12.45;;
32347;SDS011;18821;44.800;10.326;2023-02-01T08:27:43;33.60;;;12.60;;
32347;SDS011;18821;44.800;10.326;2023-02-01T08:30:10;34.00;;;13.13;;
32347;SDS011;18821;44.800;10.326;2023-02-01T08:32:36;27.05;;;12.13;;
32347;SDS011;18821;44.800;10.326;2023-02-01T08:35:05;29.65;;;12.90;;
32347;SDS011;18821;44.800;10.326;2023-02-01T08:37:32;32.47;;;12.85;;
32347;SDS011;18821;44.800;10.326;2023-02-01T08:39:58;33.08;;;14.25;;
32347;SDS011;18821;44.800;10.326;2023-02-01T08:42:24;47.30;;;16.95;;
32347;SDS011;18821;44.800;10.326;2023-02-01T08:45:08;30.23;;;13.35;;
32347;SDS011;18821;44.800;10.326;2023-02-01T08:47:35;36.17;;;15.90;;
32347;SDS011;18821;44.800;10.326;2023-02-01T08:50:01;48.97;;;21.17;;
32347;SDS011;18821;44.800;10.326;2023-02-01T08:52:27;50.05;;;19.95;;
32347;SDS011;18821;44.800;10.326;2023-02-01T08:54:55;58.08;;;26.35;;
32347;SDS011;18821;44.800;10.326;2023-02-01T08:57:21;59.25;;;25.23;;
32347;SDS011;18821;44.800;10.326;2023-02-01T08:59:46;58.33;;;27.20;;
32347;SDS011;18821;44.800;10.326;2023-02-01T09:02:13;63.38;;;28.27;;
32347;SDS011;18821;44.800;10.326;2023-02-01T09:04:41;62.60;;;28.88;;
32347;SDS011;18821;44.800;10.326;2023-02-01T09:07:07;63.92;;;28.73;;
32347;SDS011;18821;44.800;10.326;2023-02-01T09:09:34;59.63;;;29.35;;
32347;SDS011;18821;44.800;10.326;2023-02-01T09:12:01;58.20;;;27.02;;
32347;SDS011;18821;44.800;10.326;2023-02-01T09:14:30;65.20;;;28.42;;
32347;SDS011;18821;44.800;10.326;2023-02-01T09:16:56;50.60;;;25.33;;
32347;SDS011;18821;44.800;10.326;2023-02-01T09:19:23;54.22;;;27.58;;
32347;SDS011;18821;44.800;10.326;2023-02-01T09:21:49;52.30;;;24.88;;
32347;SDS011;18821;44.800;10.326;2023-02-01T09:24:18;52.85;;;26.65;;
32347;SDS011;18821;44.800;10.326;2023-02-01T09:26:44;56.42;;;27.23;;
32347;SDS011;18821;44.800;10.326;2023-02-01T09:29:13;67.65;;;29.38;;
32347;SDS011;18821;44.800;10.326;2023-02-01T09:31:39;47.92;;;22.67;;
32347;SDS011;18821;44.800;10.326;2023-02-01T09:34:05;55.03;;;26.65;;
32347;SDS011;18821;44.800;10.326;2023-02-01T09:36:33;56.28;;;27.10;;
32347;SDS011;18821;44.800;10.326;2023-02-01T09:38:59;56.83;;;27.13;;
32347;SDS011;18821;44.800;10.326;2023-02-01T09:44:21;54.38;;;27.05;;
32347;SDS011;18821;44.800;10.326;2023-02-01T09:47:17;54.70;;;26.00;;
32347;SDS011;18821;44.800;10.326;2023-02-01T09:49:48;49.40;;;26.67;;
32347;SDS011;18821;44.800;10.326;2023-02-01T09:52:29;48.75;;;24.77;;
32347;SDS011;18821;44.800;10.326;2023-02-01T09:55:04;59.95;;;26.45;;
32347;SDS011;18821;44.800;10.326;2023-02-01T09:57:40;49.78;;;26.13;;
32347;SDS011;18821;44.800;10.326;2023-02-01T10:00:18;53.75;;;26.10;;
32347;SDS011;18821;44.800;10.326;2023-02-01T10:02:50;54.28;;;26.95;;
32347;SDS011;18821;44.800;10.326;2023-02-01T10:05:22;62.42;;;27.27;;
32347;SDS011;18821;44.800;10.326;2023-02-01T10:08:19;52.13;;;25.58;;
32347;SDS011;18821;44.800;10.326;2023-02-01T10:13:59;56.17;;;26.88;;
32347;SDS011;18821;44.800;10.326;2023-02-01T10:16:43;54.30;;;25.83;;
32347;SDS011;18821;44.800;10.326;2023-02-01T10:27:35;64.63;;;27.10;;
32347;SDS011;18821;44.800;10.326;2023-02-01T10:30:22;54.97;;;26.52;;
32347;SDS011;18821;44.800;10.326;2023-02-01T10:32:52;50.83;;;26.35;;
32347;SDS011;18821;44.800;10.326;2023-02-01T10:35:24;47.85;;;24.45;;
32347;SDS011;18821;44.800;10.326;2023-02-01T10:37:59;57.70;;;26.50;;
32347;SDS011;18821;44.800;10.326;2023-02-01T10:40:27;52.40;;;26.90;;
32347;SDS011;18821;44.800;10.326;2023-02-01T10:42:54;58.17;;;28.30;;
32347;SDS011;18821;44.800;10.326;2023-02-01T10:45:26;57.97;;;28.52;;
32347;SDS011;18821;44.800;10.326;2023-02-01T10:47:55;50.50;;;24.60;;
32347;SDS011;18821;44.800;10.326;2023-02-01T10:53:03;52.90;;;26.45;;
32347;SDS011;18821;44.800;10.326;2023-02-01T11:01:00;45.53;;;23.40;;
32347;SDS011;18821;44.800;10.326;2023-02-01T11:03:40;54.08;;;25.95;;
32347;SDS011;18821;44.800;10.326;2023-02-01T11:06:16;50.05;;;24.83;;
32347;SDS011;18821;44.800;10.326;2023-02-01T11:11:11;50.00;;;23.33;;
32347;SDS011;18821;44.800;10.326;2023-02-01T11:13:38;51.50;;;22.85;;
32347;SDS011;18821;44.800;10.326;2023-02-01T11:16:08;50.95;;;22.85;;
32347;SDS011;18821;44.800;10.326;2023-02-01T11:18:38;50.95;;;23.48;;
32347;SDS011;18821;44.800;10.326;2023-02-01T11:21:04;39.30;;;21.65;;
32347;SDS011;18821;44.800;10.326;2023-02-01T11:23:32;44.42;;;21.33;;
32347;SDS011;18821;44.800;10.326;2023-02-01T11:25:59;41.55;;;20.58;;
32347;SDS011;18821;44.800;10.326;2023-02-01T11:28:29;41.63;;;20.00;;
32347;SDS011;18821;44.800;10.326;2023-02-01T11:30:59;37.60;;;18.85;;
32347;SDS011;18821;44.800;10.326;2023-02-01T11:33:32;40.75;;;18.65;;
32347;SDS011;18821;44.800;10.326;2023-02-01T11:36:12;41.58;;;18.60;;
32347;SDS011;18821;44.800;10.326;2023-02-01T11:38:45;38.88;;;17.30;;
32347;SDS011;18821;44.800;10.326;2023-02-01T11:41:23;41.70;;;20.30;;
32347;SDS011;18821;44.800;10.326;2023-02-01T11:43:55;45.40;;;21.48;;
32347;SDS011;18821;44.800;10.326;2023-02-01T11:46:28;40.85;;;20.05;;
32347;SDS011;18821;44.800;10.326;2023-02-01T11:49:14;40.90;;;17.65;;
32347;SDS011;18821;44.800;10.326;2023-02-01T11:54:34;39.60;;;18.77;;
32347;SDS011;18821;44.800;10.326;2023-02-01T12:16:35;38.28;;;17.55;;
32347;SDS011;18821;44.800;10.326;2023-02-01T12:32:23;33.55;;;16.77;;
32347;SDS011;18821;44.800;10.326;2023-02-01T12:43:34;34.78;;;18.35;;
32347;SDS011;18821;44.800;10.326;2023-02-01T12:46:03;37.72;;;18.05;;
32347;SDS011;18821;44.800;10.326;2023-02-01T12:48:46;38.70;;;16.98;;
32347;SDS011;18821;44.800;10.326;2023-02-01T12:51:35;37.38;;;16.25;;
32347;SDS011;18821;44.800;10.326;2023-02-01T12:57:35;33.78;;;17.45;;
32347;SDS011;18821;44.800;10.326;2023-02-01T13:02:55;33.30;;;15.90;;
32347;SDS011;18821;44.800;10.326;2023-02-01T13:05:31;32.47;;;16.52;;
32347;SDS011;18821;44.800;10.326;2023-02-01T13:08:11;24.73;;;14.38;;
32347;SDS011;18821;44.800;10.326;2023-02-01T13:10:47;28.88;;;15.88;;
32347;SDS011;18821;44.800;10.326;2023-02-01T13:13:26;32.78;;;15.68;;
32347;SDS011;18821;44.800;10.326;2023-02-01T13:16:02;39.55;;;16.63;;
32347;SDS011;18821;44.800;10.326;2023-02-01T13:18:57;31.25;;;16.48;;
32347;SDS011;18821;44.800;10.326;2023-02-01T13:21:31;32.50;;;17.38;;
32347;SDS011;18821;44.800;10.326;2023-02-01T13:24:02;28.48;;;15.40;;
32347;SDS011;18821;44.800;10.326;2023-02-01T13:26:28;40.95;;;17.40;;
32347;SDS011;18821;44.800;10.326;2023-02-01T13:29:04;31.95;;;17.13;;
32347;SDS011;18821;44.800;10.326;2023-02-01T13:42:48;36.53;;;16.80;;
32347;SDS011;18821;44.800;10.326;2023-02-01T13:45:30;36.20;;;17.08;;
32347;SDS011;18821;44.800;10.326;2023-02-01T13:48:03;39.53;;;16.80;;
32347;SDS011;18821;44.800;10.326;2023-02-01T13:50:35;31.92;;;16.85;;
32347;SDS011;18821;44.800;10.326;2023-02-01T13:55:36;33.08;;;17.17;;
32347;SDS011;18821;44.800;10.326;2023-02-01T14:00:44;34.22;;;16.58;;
32347;SDS011;18821;44.800;10.326;2023-02-01T14:03:17;30.50;;;17.15;;
32347;SDS011;18821;44.800;10.326;2023-02-01T14:08:13;36.65;;;16.42;;
32347;SDS011;18821;44.800;10.326;2023-02-01T14:10:56;35.38;;;17.20;;
32347;SDS011;18821;44.800;10.326;2023-02-01T14:21:23;31.27;;;17.35;;
32347;SDS011;18821;44.800;10.326;2023-02-01T14:26:45;39.72;;;15.55;;
32347;SDS011;18821;44.800;10.326;2023-02-01T14:32:21;41.80;;;16.60;;
32347;SDS011;18821;44.800;10.326;2023-02-01T14:34:51;33.10;;;17.40;;
32347;SDS011;18821;44.800;10.326;2023-02-01T14:37:24;36.17;;;17.58;;
32347;SDS011;18821;44.800;10.326;2023-02-01T14:40:16;45.75;;;18.20;;
32347;SDS011;18821;44.800;10.326;2023-02-01T14:42:46;32.40;;;16.90;;
32347;SDS011;18821;44.800;10.326;2023-02-01T14:50:23;32.53;;;16.58;;
32347;SDS011;18821;44.800;10.326;2023-02-01T14:58:04;35.80;;;17.17;;
32347;SDS011;18821;44.800;10.326;2023-02-01T15:00:37;34.05;;;16.83;;
32347;SDS011;18821;44.800;10.326;2023-02-01T15:03:20;32.00;;;17.52;;
32347;SDS011;18821;44.800;10.326;2023-02-01T15:06:03;34.28;;;17.25;;
32347;SDS011;18821;44.800;10.326;2023-02-01T15:08:33;37.20;;;17.65;;
32347;SDS011;18821;44.800;10.326;2023-02-01T15:11:02;40.17;;;18.10;;
32347;SDS011;18821;44.800;10.326;2023-02-01T15:18:37;39.38;;;17.88;;
32347;SDS011;18821;44.800;10.326;2023-02-01T15:21:12;30.92;;;16.60;;
32347;SDS011;18821;44.800;10.326;2023-02-01T15:23:42;36.58;;;18.05;;
32347;SDS011;18821;44.800;10.326;2023-02-01T15:26:08;41.40;;;17.98;;
32347;SDS011;18821;44.800;10.326;2023-02-01T15:28:34;35.95;;;18.05;;
32347;SDS011;18821;44.800;10.326;2023-02-01T15:31:04;36.35;;;18.75;;
32347;SDS011;18821;44.800;10.326;2023-02-01T15:33:31;39.00;;;19.38;;
32347;SDS011;18821;44.800;10.326;2023-02-01T15:36:11;48.38;;;19.40;;
32347;SDS011;18821;44.800;10.326;2023-02-01T15:38:43;34.55;;;18.63;;
32347;SDS011;18821;44.800;10.326;2023-02-01T15:41:11;36.50;;;18.95;;
32347;SDS011;18821;44.800;10.326;2023-02-01T15:44:04;36.20;;;17.88;;
32347;SDS011;18821;44.800;10.326;2023-02-01T15:46:42;29.75;;;16.92;;
32347;SDS011;18821;44.800;10.326;2023-02-01T15:51:45;40.67;;;18.25;;
32347;SDS011;18821;44.800;10.326;2023-02-01T15:54:17;32.70;;;16.67;;
32347;SDS011;18821;44.800;10.326;2023-02-01T15:56:53;35.42;;;17.55;;
32347;SDS011;18821;44.800;10.326;2023-02-01T15:59:21;39.22;;;18.27;;
32347;SDS011;18821;44.800;10.326;2023-02-01T16:01:54;36.40;;;17.17;;
32347;SDS011;18821;44.800;10.326;2023-02-01T16:04:22;37.67;;;18.42;;
32347;SDS011;18821;44.800;10.326;2023-02-01T16:09:18;41.78;;;18.08;;
32347;SDS011;18821;44.800;10.326;2023-02-01T16:11:47;44.13;;;20.13;;
32347;SDS011;18821;44.800;10.326;2023-02-01T16:14:19;46.13;;;19.90;;
32347;SDS011;18821;44.800;10.326;2023-02-01T16:16:45;42.95;;;19.40;;
32347;SDS011;18821;44.800;10.326;2023-02-01T16:19:12;34.17;;;17.50;;
32347;SDS011;18821;44.800;10.326;2023-02-01T16:21:39;33.60;;;16.30;;
32347;SDS011;18821;44.800;10.326;2023-02-01T16:24:05;37.03;;;18.50;;
32347;SDS011;18821;44.800;10.326;2023-02-01T16:26:32;43.15;;;17.10;;
32347;SDS011;18821;44.800;10.326;2023-02-01T16:28:58;32.65;;;18.30;;
32347;SDS011;18821;44.800;10.326;2023-02-01T16:31:29;36.17;;;18.23;;
32347;SDS011;18821;44.800;10.326;2023-02-01T16:33:57;42.42;;;19.23;;
32347;SDS011;18821;44.800;10.326;2023-02-01T16:36:24;37.25;;;18.15;;
32347;SDS011;18821;44.800;10.326;2023-02-01T16:38:52;35.55;;;18.48;;
32347;SDS011;18821;44.800;10.326;2023-02-01T16:41:19;33.97;;;18.10;;
32347;SDS011;18821;44.800;10.326;2023-02-01T16:43:49;42.10;;;19.63;;
32347;SDS011;18821;44.800;10.326;2023-02-01T16:46:17;41.25;;;19.83;;
32347;SDS011;18821;44.800;10.326;2023-02-01T16:48:57;45.33;;;20.65;;
32347;SDS011;18821;44.800;10.326;2023-02-01T16:51:25;43.95;;;20.17;;
32347;SDS011;18821;44.800;10.326;2023-02-01T16:53:58;38.67;;;19.83;;
32347;SDS011;18821;44.800;10.326;2023-02-01T16:56:25;47.70;;;21.45;;
32347;SDS011;18821;44.800;10.326;2023-02-01T16:58:55;42.92;;;21.23;;
32347;SDS011;18821;44.800;10.326;2023-02-01T17:01:31;46.08;;;21.80;;
32347;SDS011;18821;44.800;10.326;2023-02-01T17:03:57;44.05;;;21.55;;
32347;SDS011;18821;44.800;10.326;2023-02-01T17:06:24;41.78;;;21.10;;
32347;SDS011;18821;44.800;10.326;2023-02-01T17:08:54;49.97;;;21.88;;
32347;SDS011;18821;44.800;10.326;2023-02-01T17:11:23;48.45;;;22.95;;
32347;SDS011;18821;44.800;10.326;2023-02-01T17:13:49;48.13;;;22.80;;
32347;SDS011;18821;44.800;10.326;2023-02-01T17:18:54;45.78;;;23.45;;
32347;SDS011;18821;44.800;10.326;2023-02-01T17:21:22;43.65;;;21.88;;
32347;SDS011;18821;44.800;10.326;2023-02-01T17:23:51;48.08;;;22.30;;
32347;SDS011;18821;44.800;10.326;2023-02-01T17:26:18;50.60;;;23.55;;